Flight Track Log - Related Links

Times and Time Zones

All times are in EDT time to prevent confusion due to time zone crossing. See the RAX289 flight status page for this flight to view local times or setup timezone preferences in your user account.

Time Position Orientation Groundspeed Altitude Reporting Facility
EDT Latitude Longitude Course Direction KTS MPH feet Rate Location/Type
Sun 12:23:02 AM 34.8575 -87.5025 20° North 423 487 7,700  Level Memphis Center
Sun 12:24:02 AM 34.9319 -87.4694 20° North 331 381 10,300 2,700 Climbing Memphis Center
Sun 12:25:02 AM 35.0125 -87.4311 21° North 310 357 13,100 2,800 Climbing Memphis Center
Sun 12:26:02 AM 35.0950 -87.3928 21° North 305 351 15,900 2,800 Climbing Memphis Center
Sun 12:27:02 AM 35.1817 -87.3617 16° North 310 357 18,700 2,500 Climbing Memphis Center
Sun 12:28:02 AM 35.2794 -87.3431 North 325 374 20,900 2,150 Climbing Memphis Center
Sun 12:29:02 AM 35.3933 -87.3161 11° North 350 403 23,000 1,500 Climbing Memphis Center
Sun 12:30:02 AM 35.4931 -87.2944 10° North 393 452 23,900 1,350 Climbing Memphis Center
Sun 12:31:02 AM 35.6114 -87.2697 10° North 414 476 25,700 1,850 Climbing Memphis Center
Sun 12:32:02 AM 35.7275 -87.2450 10° North 424 488 27,600 1,900 Climbing Memphis Center
Sun 12:33:02 AM 35.8456 -87.2175 11° North 424 488 29,500 1,900 Climbing Memphis Center
Sun 12:34:02 AM 35.9617 -87.1925 10° North 424 488 31,400 1,533 Climbing Memphis Center
Sun 12:36:02 AM 36.2047 -87.0750 21° North 442 509 34,100 1,200 Climbing Memphis Center
Sun 12:37:02 AM 36.3219 -87.0111 24° Northeast 453 521 35,000 900 Climbing Memphis Center
Sun 12:38:02 AM 36.4517 -86.9542 19° North 474 545 35,900 850 Climbing Memphis Center
Sun 12:39:02 AM 36.5583 -86.8953 24° Northeast 479 551 36,700 800 Climbing Memphis Center
Sun 12:40:02 AM 36.6794 -86.8281 24° Northeast 479 551 37,500 914 Climbing Memphis Center
Sun 12:41:33 AM 36.8614 -86.7328 23° Northeast 477 549 39,000 1,066 Climbing Indianapolis Center
Sun 12:42:34 AM 36.9822 -86.6794 19° North 460 529 40,200 992 Climbing Indianapolis Center
Sun 12:43:34 AM 37.0989 -86.6258 20° North 446 513 41,000 400 Climbing Indianapolis Center
Sun 12:44:34 AM 37.2164 -86.5656 22° Northeast 449 517 41,000  Level Indianapolis Center
Sun 12:45:34 AM 37.3353 -86.5044 22° Northeast 456 525 41,000  Level Indianapolis Center
Sun 12:46:35 AM 37.4542 -86.4425 22° Northeast 459 528 41,000  Level Indianapolis Center
Sun 12:47:35 AM 37.5728 -86.3750 24° Northeast 463 533 41,000  Level Indianapolis Center
Sun 12:48:35 AM 37.6928 -86.3178 21° North 459 528 41,000  Level Indianapolis Center
Sun 12:49:35 AM 37.8189 -86.2600 20° North 460 529 41,000  Level Indianapolis Center
Sun 12:50:35 AM 37.9392 -86.2033 20° North 460 529 41,000  Level Indianapolis Center
Sun 12:51:36 AM 38.0575 -86.1403 23° Northeast 461 531 41,000  Level Indianapolis Center
Sun 12:52:36 AM 38.1744 -86.0717 25° Northeast 462 532 41,000  Level Indianapolis Center
Sun 12:53:36 AM 38.2906 -86.0053 24° Northeast 458 527 41,000  Level Indianapolis Center
Sun 12:54:36 AM 38.4092 -85.9444 22° Northeast 460 529 41,000  Level Indianapolis Center
Sun 12:55:36 AM 38.5278 -85.8864 21° North 457 526 41,000  Level Indianapolis Center
Sun 12:56:36 AM 38.6483 -85.8172 24° Northeast 457 526 41,000  Level Indianapolis Center
Sun 12:58:37 AM 38.8786 -85.6806 25° Northeast 455 524 41,000  Level Indianapolis Center
Sun 12:59:37 AM 38.9958 -85.6228 21° North 453 521 41,000  Level Indianapolis Center
Sun 01:00:37 AM 39.1125 -85.5656 21° North 451 519 41,000  Level Indianapolis Center
Sun 01:01:37 AM 39.2286 -85.5006 23° Northeast 456 525 41,000  Level Indianapolis Center
Sun 01:02:38 AM 39.3461 -85.4403 22° Northeast 457 526 41,000  Level Indianapolis Center
Sun 01:03:38 AM 39.4625 -85.3875 19° North 448 516 41,000  Level Indianapolis Center
Sun 01:04:38 AM 39.5794 -85.3300 21° North 452 520 41,000  Level Indianapolis Center
Sun 01:05:38 AM 39.6939 -85.2642 24° Northeast 454 522 41,000  Level Indianapolis Center
Sun 01:06:38 AM 39.8072 -85.2014 23° Northeast 448 516 41,000  Level Indianapolis Center
Sun 01:07:38 AM 39.9206 -85.1386 23° Northeast 446 513 41,000  Level Indianapolis Center
Sun 01:08:39 AM 40.0333 -85.0733 24° Northeast 446 513 41,000  Level Indianapolis Center
Sun 01:09:39 AM 40.1472 -85.0122 22° Northeast 445 512 41,000  Level Indianapolis Center
Sun 01:10:39 AM 40.2592 -84.9461 24° Northeast 444 511 41,000  Level Indianapolis Center
Sun 01:11:39 AM 40.3719 -84.8725 26° Northeast 453 521 41,000  Level Indianapolis Center
Sun 01:12:39 AM 40.4842 -84.8003 26° Northeast 446 513 41,000  Level Indianapolis Center
Sun 01:13:39 AM 40.5981 -84.7322 24° Northeast 443 510 41,000 -50 Level Indianapolis Center
Sun 01:14:40 AM 40.7131 -84.6656 24° Northeast 448 516 40,900 -298 Descending Indianapolis Center
Sun 01:15:40 AM 40.8072 -84.6011 27° Northeast 453 521 40,400 -600 Descending Indianapolis Center
Sun 01:16:40 AM 40.9403 -84.5017 29° Northeast 465 535 39,700 -550 Descending Indianapolis Center
Sun 01:17:40 AM 41.0600 -84.4231 26° Northeast 471 542 39,300 -400 Descending Indianapolis Center
Sun 01:18:40 AM 41.1814 -84.3489 25° Northeast 474 545 38,900 -650 Descending Indianapolis Center
Sun 01:19:40 AM 41.3028 -84.2800 23° Northeast 471 542 38,000 -1,000 Descending Indianapolis Center
Sun 01:20:40 AM 41.4158 -84.2019 27° Northeast 473 544 36,900 -1,289 Descending Indianapolis Center
Sun 01:21:41 AM 41.5322 -84.1281 25° Northeast 460 529 35,400 -2,281 Descending Indianapolis Center
Sun 01:22:41 AM 41.6458 -84.0603 24° Northeast 446 513 32,300 -3,200 Descending Indianapolis Center
Sun 01:23:41 AM 41.7594 -83.9867 26° Northeast 447 514 29,000 -3,357 Descending Indianapolis Center
Sun 01:25:04 AM 41.9247 -83.8933 23° Northeast 438 504 24,300 -3,304 Descending Cleveland Center
Sun 01:25:59 AM 42.0219 -83.8453 20° North 436 502 21,400 -3,391 Descending Cleveland Center
Sun 01:26:59 AM 42.1261 -83.7750 27° Northeast 415 478 17,800 -3,372 Descending Cleveland Center
Sun 01:28:00 AM 42.2281 -83.7014 28° Northeast 374 430 14,600 -3,443 Descending Cleveland Center
Sun 01:29:01 AM 42.3150 -83.6497 24° Northeast 335 386 10,800 -3,074 Descending Cleveland Center
Sun 01:30:01 AM 42.3911 -83.6083 22° Northeast 275 316 8,400 -2,126 Descending Cleveland Center
Sun 01:31:08 AM 42.4669 -83.5781 16° North 233 268 6,300 -1,984 Descending Cleveland Center
Sun 01:32:08 AM 42.5219 -83.5497 21° North 240 276 4,200 -1,750 Descending Cleveland Center
Sun 01:33:08 AM 42.5769 -83.5186 23° Northeast 218 251 2,800 -1,000 Descending Cleveland Center
Sun 01:34:08 AM 42.6150 -83.4950 25° Northeast 184 212 2,200 -443 Descending Cleveland Center
Sun 01:35:10 AM 42.6511 -83.4769 20° North 126 145 1,900 -290 Descending Cleveland Center
Sun 01:37:00 AM 42.6500 -83.4167 20° North  Level FlightAware Approximate
Sun 01:44:00 AM 42.6656 -83.4205 20° North  Level Estimated
Sun 01:45:00 AM 42.6656 -83.4205 20° North  Level Estimated

Login

Don't have an account? Register now (free) for customized features, flight alerts, and more!